Time;durP1;ratioP1;P1;durP2;ratioP2;P2;SDS_P1;SDS_P2;PMS_P1;PMS_P2;Temp;Humidity;BMP_temperature;BMP_pressure;BME280_temperature;BME280_humidity;BME280_pressure;Samples;Min_cycle;Max_cycle;Signal;HPM_P1;HPM_P2
2023/05/31 00:01:55;;;;;;;7.05;6.40;;;;;;;11.71;90.63;102465.81;5027285;28;20964;-80
2023/05/31 00:04:21;;;;;;;8.00;6.20;;;;;;;11.72;90.30;102468.38;5010093;28;20033;-80
2023/05/31 00:06:46;;;;;;;7.22;6.40;;;;;;;11.74;90.74;102473.56;5027070;28;20140;-80
2023/05/31 00:09:12;;;;;;;6.97;6.25;;;;;;;11.76;90.92;102464.63;5011423;28;20553;-80
2023/05/31 00:11:37;;;;;;;9.02;6.50;;;;;;;11.69;90.91;102472.94;5007078;28;20025;-80
2023/05/31 00:14:04;;;;;;;7.22;6.53;;;;;;;11.67;91.34;102480.09;5027853;28;20081;-80
2023/05/31 00:16:32;;;;;;;7.80;6.97;;;;;;;11.67;91.93;102469.53;5028335;28;20454;-80
2023/05/31 00:18:57;;;;;;;7.63;6.65;;;;;;;11.69;91.37;102468.53;5010790;28;20116;-80
2023/05/31 00:21:23;;;;;;;8.82;6.65;;;;;;;11.66;91.52;102463.41;5011896;28;20151;-80
2023/05/31 00:23:51;;;;;;;11.10;7.07;;;;;;;11.64;91.92;102470.56;5011513;28;20520;-80
2023/05/31 00:26:16;;;;;;;8.50;7.70;;;;;;;11.59;92.15;102462.88;5025089;28;20445;-80
2023/05/31 00:28:42;;;;;;;10.68;7.00;;;;;;;11.59;92.25;102467.28;5029438;28;20026;-82
2023/05/31 00:31:07;;;;;;;8.38;7.15;;;;;;;11.57;92.71;102466.50;5010164;28;20021;-81
2023/05/31 00:33:36;;;;;;;8.32;7.53;;;;;;;11.61;92.47;102466.31;5029250;28;20029;-80
2023/05/31 00:36:02;;;;;;;8.85;7.10;;;;;;;11.58;92.56;102469.06;5011668;28;20018;-80
2023/05/31 00:38:28;;;;;;;9.48;7.03;;;;;;;11.50;92.60;102463.34;5011252;28;20600;-80
2023/05/31 00:40:53;;;;;;;8.18;7.10;;;;;;;11.48;93.32;102461.72;5028660;28;20026;-83
2023/05/31 00:43:19;;;;;;;7.72;7.03;;;;;;;11.48;93.44;102459.09;5028346;28;20270;-81
2023/05/31 00:45:45;;;;;;;8.13;7.18;;;;;;;11.43;93.70;102463.75;5010060;28;20060;-80
2023/05/31 00:48:10;;;;;;;8.02;7.20;;;;;;;11.41;93.82;102469.09;5009777;28;20037;-80
2023/05/31 00:50:36;;;;;;;8.00;6.82;;;;;;;11.39;94.39;102476.25;5012068;28;20036;-80
2023/05/31 00:53:03;;;;;;;8.25;7.10;;;;;;;11.37;94.01;102471.97;5028117;28;20109;-82
2023/05/31 00:55:40;;;;;;;7.93;7.10;;;;;;;11.35;94.93;102472.06;5026569;28;20041;-82
2023/05/31 00:58:06;;;;;;;8.88;7.32;;;;;;;11.33;94.33;102465.16;5007860;28;20394;-81
2023/05/31 01:00:31;;;;;;;8.20;6.95;;;;;;;11.30;94.68;102467.03;5028258;28;20026;-81
2023/05/31 01:03:01;;;;;;;8.65;7.20;;;;;;;11.31;94.94;102467.88;5006146;28;20022;-81
2023/05/31 01:05:26;;;;;;;8.25;7.35;;;;;;;11.29;95.45;102469.75;5025733;28;20046;-81
2023/05/31 01:07:52;;;;;;;8.30;6.90;;;;;;;11.27;95.60;102475.09;5011089;28;20037;-81
2023/05/31 01:10:17;;;;;;;10.82;8.05;;;;;;;11.21;95.89;102467.50;5028220;28;20689;-81
2023/05/31 01:12:48;;;;;;;7.78;6.97;;;;;;;11.20;96.13;102483.34;5031912;28;20029;-81
2023/05/31 01:15:23;;;;;;;8.90;7.78;;;;;;;11.21;96.34;102478.03;5029669;28;20483;-81
2023/05/31 01:18:03;;;;;;;9.20;7.63;;;;;;;11.23;96.33;102481.44;5031993;28;20040;-81
2023/05/31 01:20:33;;;;;;;8.35;6.75;;;;;;;11.20;97.10;102473.66;5027275;28;20025;-81
2023/05/31 01:23:39;;;;;;;8.93;7.60;;;;;;;11.19;96.96;102471.97;5013650;28;20436;-81
2023/05/31 01:26:29;;;;;;;8.57;7.68;;;;;;;11.23;96.42;102476.19;5022432;28;20033;-82
2023/05/31 01:28:59;;;;;;;10.30;7.25;;;;;;;11.14;97.07;102471.34;5005612;28;20029;-81
2023/05/31 01:31:27;;;;;;;8.40;7.60;;;;;;;11.08;97.45;102482.19;5012364;28;20041;-81
2023/05/31 01:33:53;;;;;;;8.07;7.28;;;;;;;11.12;97.87;102475.84;5031705;28;20041;-81
2023/05/31 01:36:19;;;;;;;8.15;7.35;;;;;;;11.08;97.67;102474.28;5029711;28;20091;-81
2023/05/31 01:38:45;;;;;;;8.55;7.70;;;;;;;11.10;98.09;102472.44;5009070;28;20033;-81
2023/05/31 01:41:12;;;;;;;8.45;7.55;;;;;;;11.08;98.05;102471.66;5013783;28;20493;-81
2023/05/31 01:43:43;;;;;;;10.15;7.88;;;;;;;11.05;98.12;102471.81;5013542;28;20033;-81
2023/05/31 01:46:10;;;;;;;9.27;7.93;;;;;;;11.03;98.70;102467.56;5030224;28;20904;-81
2023/05/31 01:48:37;;;;;;;8.88;7.75;;;;;;;10.94;99.34;102463.59;5012542;28;20059;-81
2023/05/31 01:51:03;;;;;;;8.60;7.70;;;;;;;10.97;99.47;102463.44;5013366;28;20036;-81
2023/05/31 01:53:31;;;;;;;8.88;7.97;;;;;;;10.93;99.89;102475.06;5032781;28;20115;-81
2023/05/31 01:55:58;;;;;;;9.98;8.07;;;;;;;10.92;99.61;102463.69;5029414;28;20431;-81
2023/05/31 01:58:28;;;;;;;9.57;7.93;;;;;;;10.86;100.00;102461.34;5013446;28;20025;-81
2023/05/31 02:01:03;;;;;;;11.02;8.02;;;;;;;10.90;100.00;102456.78;5013596;28;20057;-81
2023/05/31 02:03:28;;;;;;;9.07;7.97;;;;;;;10.88;100.00;102454.22;5032465;28;20418;-81
2023/05/31 02:06:01;;;;;;;9.32;8.32;;;;;;;10.87;100.00;102463.06;5011864;28;20084;-81
2023/05/31 02:08:27;;;;;;;12.07;8.00;;;;;;;10.80;100.00;102456.38;5032284;28;20046;-82
2023/05/31 02:10:53;;;;;;;10.02;8.40;;;;;;;10.89;100.00;102449.81;5012985;28;20045;-82
2023/05/31 02:13:23;;;;;;;9.82;8.30;;;;;;;10.82;100.00;102454.53;5030209;28;20037;-82
2023/05/31 02:15:48;;;;;;;9.82;8.07;;;;;;;10.82;100.00;102456.31;5029438;28;20030;-81
2023/05/31 02:18:16;;;;;;;9.32;8.43;;;;;;;10.84;100.00;102451.81;5031798;28;20419;-81
2023/05/31 02:20:45;;;;;;;10.60;8.60;;;;;;;10.83;100.00;102450.97;5029086;28;20501;-81
2023/05/31 02:23:11;;;;;;;9.00;8.05;;;;;;;10.84;100.00;102447.41;5030001;28;20029;-81
2023/05/31 02:25:36;;;;;;;8.95;8.05;;;;;;;10.84;100.00;102442.16;5030109;28;20535;-81
2023/05/31 02:28:02;;;;;;;12.10;8.52;;;;;;;10.84;100.00;102442.16;5010730;28;20033;-81
2023/05/31 02:30:30;;;;;;;10.20;8.63;;;;;;;10.80;100.00;102450.25;5009995;28;20085;-81
2023/05/31 02:32:55;;;;;;;12.77;8.85;;;;;;;10.79;100.00;102452.03;5020992;28;20049;-82
2023/05/31 02:35:24;;;;;;;10.40;8.60;;;;;;;10.79;100.00;102456.44;4993515;28;20477;-81
2023/05/31 02:37:49;;;;;;;11.65;8.95;;;;;;;10.76;100.00;102459.22;4993051;28;20398;-81
2023/05/31 02:40:15;;;;;;;12.80;9.20;;;;;;;10.78;100.00;102449.47;5010074;28;20026;-81
2023/05/31 02:42:42;;;;;;;9.68;8.63;;;;;;;10.75;100.00;102460.16;5009822;28;20647;-81
2023/05/31 02:45:10;;;;;;;11.27;8.90;;;;;;;10.68;100.00;102444.66;5011769;28;20393;-81
2023/05/31 02:47:38;;;;;;;11.27;9.40;;;;;;;10.71;100.00;102450.69;5010848;28;20363;-81
2023/05/31 02:50:08;;;;;;;12.63;9.10;;;;;;;10.67;100.00;102445.59;5025092;28;20371;-81
2023/05/31 02:52:34;;;;;;;13.10;9.35;;;;;;;10.67;100.00;102453.47;5029868;28;20033;-81
2023/05/31 02:55:03;;;;;;;10.70;9.45;;;;;;;10.68;100.00;102457.81;5028074;28;20093;-81
2023/05/31 02:57:31;;;;;;;9.82;8.82;;;;;;;10.63;100.00;102453.72;5031168;28;20022;-81
2023/05/31 03:00:11;;;;;;;14.25;9.98;;;;;;;10.64;100.00;102445.75;5029351;28;20025;-81
2023/05/31 03:02:41;;;;;;;10.55;9.45;;;;;;;10.60;100.00;102449.44;5028777;28;20025;-81
2023/05/31 03:05:08;;;;;;;11.30;9.90;;;;;;;10.57;100.00;102449.59;5022338;28;20075;-82
2023/05/31 03:07:34;;;;;;;12.13;9.57;;;;;;;10.55;100.00;102456.72;5025789;28;20026;-81
2023/05/31 03:10:00;;;;;;;13.20;10.43;;;;;;;10.58;100.00;102456.56;5011996;28;20043;-81
2023/05/31 03:12:26;;;;;;;10.82;9.73;;;;;;;10.58;100.00;102461.84;5031291;28;20030;-81
2023/05/31 03:14:51;;;;;;;10.23;9.20;;;;;;;10.58;100.00;102451.31;5029037;28;20372;-81
2023/05/31 03:17:17;;;;;;;13.43;9.90;;;;;;;10.56;100.00;102454.94;5027468;28;20530;-81
2023/05/31 03:19:42;;;;;;;11.15;9.98;;;;;;;10.51;100.00;102455.16;5029174;28;20044;-81
2023/05/31 03:22:10;;;;;;;12.05;10.35;;;;;;;10.54;100.00;102454.16;5028430;28;20234;-81
2023/05/31 03:24:35;;;;;;;11.25;10.07;;;;;;;10.49;100.00;102457.03;5027230;28;20490;-81
2023/05/31 03:27:03;;;;;;;13.70;10.35;;;;;;;10.46;100.00;102446.63;5008684;28;20025;-81
2023/05/31 03:29:43;;;;;;;12.65;10.55;;;;;;;10.48;100.00;102449.19;5009851;28;20416;-81
2023/05/31 03:32:09;;;;;;;11.75;10.43;;;;;;;10.45;100.00;102452.84;5010443;28;20021;-81
2023/05/31 03:34:34;;;;;;;12.40;11.10;;;;;;;10.45;100.00;102444.94;5009673;28;20026;-81
2023/05/31 03:37:01;;;;;;;13.25;10.30;;;;;;;10.46;100.00;102457.16;5009544;28;20129;-81
2023/05/31 03:39:30;;;;;;;15.02;11.10;;;;;;;10.46;100.00;102446.63;5009440;28;20061;-81
2023/05/31 03:41:56;;;;;;;14.00;10.65;;;;;;;10.42;100.00;102455.59;5016398;28;20028;-81
2023/05/31 03:44:21;;;;;;;14.50;11.40;;;;;;;10.39;100.00;102454.88;5009961;28;20534;-81
2023/05/31 03:46:50;;;;;;;12.63;11.30;;;;;;;10.44;100.00;102456.38;5010282;28;20105;-81
2023/05/31 03:49:15;;;;;;;12.80;10.90;;;;;;;10.38;100.00;102454.03;4992190;28;20030;-81
2023/05/31 03:51:41;;;;;;;12.25;10.95;;;;;;;10.43;100.00;102459.09;4999585;28;20033;-81
2023/05/31 03:54:07;;;;;;;13.27;11.73;;;;;;;10.45;100.00;102452.84;5029652;28;20482;-81
2023/05/31 03:56:33;;;;;;;12.60;11.07;;;;;;;10.50;100.00;102448.19;5029780;28;20498;-81
2023/05/31 03:59:04;;;;;;;14.73;11.30;;;;;;;10.43;100.00;102457.31;5028489;28;20017;-81
2023/05/31 04:01:33;;;;;;;12.40;11.10;;;;;;;10.45;100.00;102450.19;5023780;28;20076;-81
2023/05/31 04:03:58;;;;;;;15.00;11.95;;;;;;;10.70;100.00;102454.25;5026326;28;20025;-81
2023/05/31 04:06:23;;;;;;;14.38;10.82;;;;;;;11.29;100.00;102451.28;5011247;28;20099;-82
2023/05/31 04:08:49;;;;;;;13.18;10.02;;;;;;;11.96;100.00;102444.28;5011904;28;20489;-81
2023/05/31 04:11:14;;;;;;;10.75;9.65;;;;;;;12.45;96.51;102448.56;5010860;28;20018;-81
2023/05/31 04:13:40;;;;;;;10.70;9.60;;;;;;;12.98;92.91;102441.16;5029984;28;20504;-81
2023/05/31 04:16:05;;;;;;;10.48;8.75;;;;;;;13.59;89.42;102443.63;5022008;28;20033;-81
2023/05/31 04:18:31;;;;;;;11.05;9.00;;;;;;;13.68;87.45;102440.44;5029215;28;20029;-81
2023/05/31 04:20:56;;;;;;;12.57;7.88;;;;;;;14.03;85.76;102442.69;5029685;28;20021;-81
2023/05/31 04:23:21;;;;;;;10.82;8.95;;;;;;;13.65;86.67;102443.28;5029534;28;20393;-81
2023/05/31 04:25:47;;;;;;;13.73;11.57;;;;;;;13.39;88.63;102436.06;5011364;28;20055;-81
2023/05/31 04:28:15;;;;;;;11.43;10.10;;;;;;;13.09;89.57;102446.63;5027718;28;20026;-81
2023/05/31 04:30:41;;;;;;;10.27;9.15;;;;;;;13.16;90.66;102438.25;5029855;28;20475;-81
2023/05/31 04:33:21;;;;;;;11.98;10.35;;;;;;;12.84;91.57;102444.59;5017234;28;20028;-81
2023/05/31 04:35:46;;;;;;;10.80;9.70;;;;;;;12.51;92.70;102453.50;5010140;28;20045;-81
2023/05/31 04:38:13;;;;;;;13.98;10.57;;;;;;;12.23;93.54;102454.19;5009424;28;20021;-81
2023/05/31 04:40:42;;;;;;;12.68;10.98;;;;;;;12.19;94.77;102457.06;5008043;28;20146;-81
2023/05/31 04:43:08;;;;;;;12.82;10.70;;;;;;;12.12;95.79;102456.56;5009221;28;20105;-81
2023/05/31 04:45:33;;;;;;;14.98;11.55;;;;;;;11.99;96.17;102452.00;5010042;28;20136;-80
2023/05/31 04:48:05;;;;;;;14.18;11.70;;;;;;;11.87;97.31;102457.03;5025337;28;20037;-80
2023/05/31 04:50:31;;;;;;;14.05;12.02;;;;;;;11.85;97.38;102458.03;5013698;28;20029;-81
2023/05/31 04:52:57;;;;;;;13.48;11.85;;;;;;;11.88;98.28;102458.72;5031842;28;20511;-81
2023/05/31 04:55:22;;;;;;;20.05;14.82;;;;;;;11.78;98.61;102452.25;5031618;28;20033;-81
2023/05/31 04:57:51;;;;;;;19.60;13.52;;;;;;;11.76;99.07;102440.06;5032872;28;20022;-80
2023/05/31 05:00:17;;;;;;;20.30;14.13;;;;;;;11.73;98.72;102451.63;5030903;28;20025;-80
2023/05/31 05:02:45;;;;;;;16.13;13.07;;;;;;;11.79;99.60;102453.94;5032370;28;20021;-80
2023/05/31 05:05:15;;;;;;;20.88;13.60;;;;;;;11.74;100.00;102449.81;5030154;28;20100;-81
2023/05/31 05:07:41;;;;;;;17.23;13.98;;;;;;;11.78;99.56;102446.97;5009001;28;20065;-81
2023/05/31 05:10:09;;;;;;;16.60;14.57;;;;;;;11.75;99.58;102456.81;5014665;28;20033;-80
2023/05/31 05:12:35;;;;;;;16.85;13.98;;;;;;;11.77;100.00;102450.50;5031091;28;20029;-81
2023/05/31 05:15:01;;;;;;;17.38;14.48;;;;;;;11.82;99.38;102448.50;5029392;28;20029;-81
2023/05/31 05:17:26;;;;;;;16.98;15.18;;;;;;;11.80;99.97;102454.81;5032192;28;20466;-82
2023/05/31 05:19:51;;;;;;;17.60;14.60;;;;;;;11.82;99.82;102456.44;5031611;28;20473;-82
2023/05/31 05:22:17;;;;;;;16.40;14.70;;;;;;;11.85;99.81;102458.03;5030945;28;20445;-81
2023/05/31 05:24:42;;;;;;;21.65;15.57;;;;;;;11.84;100.00;102466.88;5031577;28;20040;-80
2023/05/31 05:27:08;;;;;;;19.25;14.98;;;;;;;11.86;99.52;102460.59;5029252;28;20036;-81
2023/05/31 05:29:33;;;;;;;19.30;15.65;;;;;;;11.92;99.75;102462.91;5011704;28;20026;-81
2023/05/31 05:31:58;;;;;;;18.83;15.73;;;;;;;11.98;99.89;102463.50;5029849;28;20033;-81
2023/05/31 05:34:24;;;;;;;17.15;14.73;;;;;;;12.03;99.74;102464.13;5013438;28;20045;-81
2023/05/31 05:36:51;;;;;;;20.33;15.88;;;;;;;12.07;99.11;102460.38;5031520;28;20496;-80
2023/05/31 05:39:17;;;;;;;19.50;15.75;;;;;;;12.15;99.28;102464.31;5031141;28;20049;-81
2023/05/31 05:41:42;;;;;;;24.02;15.93;;;;;;;12.21;98.73;102465.75;5009634;28;20072;-79
2023/05/31 05:44:07;;;;;;;23.40;15.30;;;;;;;12.23;98.60;102461.25;5024005;28;20275;-80
2023/05/31 05:46:51;;;;;;;20.30;15.98;;;;;;;12.32;98.38;102460.72;5032604;28;20024;-79
2023/05/31 05:49:16;;;;;;;20.05;15.48;;;;;;;12.40;98.20;102460.31;5030193;28;20032;-80
2023/05/31 05:51:42;;;;;;;16.75;14.88;;;;;;;12.45;97.99;102459.13;5030792;28;20025;-79
2023/05/31 05:54:07;;;;;;;23.38;15.98;;;;;;;12.48;97.31;102464.25;5030888;28;20112;-81
2023/05/31 05:56:32;;;;;;;22.08;14.93;;;;;;;12.57;96.76;102464.66;5004377;28;20036;-80
2023/05/31 05:58:57;;;;;;;20.35;15.05;;;;;;;12.61;96.73;102452.97;5028598;28;20025;-80
2023/05/31 06:01:26;;;;;;;20.63;15.57;;;;;;;12.67;96.34;102468.47;5028228;28;20052;-80
2023/05/31 06:03:55;;;;;;;20.95;15.57;;;;;;;12.69;96.06;102462.16;5013070;28;20030;-80
2023/05/31 06:06:20;;;;;;;24.65;16.38;;;;;;;12.79;95.97;102462.47;5029615;28;20077;-80
2023/05/31 06:08:46;;;;;;;25.83;16.20;;;;;;;12.87;96.33;102462.91;5030421;28;20057;-80
2023/05/31 06:11:12;;;;;;;21.00;16.17;;;;;;;12.91;95.08;102456.50;5030161;28;20022;-80
2023/05/31 06:13:37;;;;;;;19.02;15.90;;;;;;;12.98;95.03;102459.63;5030846;28;20112;-81
2023/05/31 06:16:04;;;;;;;19.40;15.77;;;;;;;13.02;94.09;102462.00;5024961;28;20069;-80
2023/05/31 06:18:30;;;;;;;19.70;15.65;;;;;;;13.06;94.21;102458.25;5021666;28;20456;-80
2023/05/31 06:20:55;;;;;;;20.10;16.10;;;;;;;13.11;93.49;102468.53;5029034;28;20105;-79
2023/05/31 06:23:21;;;;;;;22.83;16.40;;;;;;;13.15;93.41;102465.63;5030785;28;20100;-80
2023/05/31 06:25:47;;;;;;;20.75;15.98;;;;;;;13.26;94.13;102461.56;5030263;28;20032;-80
2023/05/31 06:28:13;;;;;;;17.80;15.32;;;;;;;13.32;93.19;102461.19;5029271;28;20033;-81
2023/05/31 06:30:42;;;;;;;17.05;15.25;;;;;;;13.39;93.27;102465.16;5000899;28;20026;-79
2023/05/31 06:33:08;;;;;;;22.60;15.90;;;;;;;13.45;92.00;102472.72;5006768;28;20647;-79
2023/05/31 06:35:34;;;;;;;18.73;16.00;;;;;;;13.49;91.69;102469.78;5030816;28;20561;-76
2023/05/31 06:38:05;;;;;;;18.45;15.73;;;;;;;13.58;91.69;102472.81;5024562;28;20427;-80
2023/05/31 06:40:38;;;;;;;21.23;15.48;;;;;;;13.69;92.56;102468.59;4998856;28;20021;-81
2023/05/31 06:43:04;;;;;;;19.23;15.23;;;;;;;13.77;91.38;102471.63;5030946;28;20034;-80
2023/05/31 06:45:29;;;;;;;20.92;15.68;;;;;;;13.86;90.64;102466.69;5017861;28;20493;-79
2023/05/31 06:47:55;;;;;;;20.52;15.93;;;;;;;13.90;89.99;102474.34;5029988;28;20028;-80
2023/05/31 06:50:20;;;;;;;20.75;15.90;;;;;;;14.03;90.10;102474.47;5028657;28;20421;-80
2023/05/31 06:52:46;;;;;;;20.98;15.30;;;;;;;14.11;89.61;102467.75;5009382;28;20021;-80
2023/05/31 06:55:11;;;;;;;21.95;15.35;;;;;;;14.15;88.94;102471.03;5030081;28;20489;-80
2023/05/31 06:57:37;;;;;;;21.35;15.23;;;;;;;14.26;88.94;102465.91;5021736;28;20402;-80
2023/05/31 07:00:03;;;;;;;19.20;15.18;;;;;;;14.36;87.95;102472.31;5017719;28;20029;-79
2023/05/31 07:02:32;;;;;;;19.15;14.88;;;;;;;14.49;87.09;102476.88;5028536;28;20022;-79
2023/05/31 07:04:59;;;;;;;22.02;15.52;;;;;;;14.63;86.31;102476.81;5021052;28;20056;-80
2023/05/31 07:07:26;;;;;;;21.75;15.40;;;;;;;14.78;84.63;102467.84;5009720;28;20046;-79
2023/05/31 07:09:51;;;;;;;21.52;14.85;;;;;;;15.01;83.82;102467.19;5025348;28;20029;-74
2023/05/31 07:12:17;;;;;;;20.75;14.43;;;;;;;15.21;82.32;102470.28;5028810;28;20550;-75
2023/05/31 07:14:42;;;;;;;19.85;13.82;;;;;;;15.46;81.19;102464.19;5028930;28;20035;-75
2023/05/31 07:17:07;;;;;;;19.70;13.48;;;;;;;15.66;79.71;102469.00;5026474;28;20100;-75
2023/05/31 07:19:43;;;;;;;17.98;13.43;;;;;;;15.95;79.01;102466.94;5027117;28;20025;-75
2023/05/31 07:22:09;;;;;;;20.35;14.13;;;;;;;16.11;77.46;102462.25;5028688;28;20401;-75
2023/05/31 07:24:35;;;;;;;17.90;13.65;;;;;;;16.42;77.59;102460.06;5028679;28;20029;-75
2023/05/31 07:27:00;;;;;;;17.55;13.82;;;;;;;16.58;75.92;102450.00;5011236;28;20037;-75
2023/05/31 07:29:26;;;;;;;19.17;13.85;;;;;;;16.90;76.07;102447.63;5029287;28;20367;-74
2023/05/31 07:31:51;;;;;;;18.17;13.23;;;;;;;17.07;73.74;102446.34;5027767;28;20017;-74
2023/05/31 07:34:16;;;;;;;20.63;13.15;;;;;;;17.03;72.94;102445.75;5029729;28;20331;-75
2023/05/31 07:36:42;;;;;;;17.00;12.70;;;;;;;17.26;72.32;102441.34;5028875;28;20355;-74
2023/05/31 07:39:10;;;;;;;17.35;12.38;;;;;;;17.55;71.14;102445.22;5012017;28;20033;-75
2023/05/31 07:41:35;;;;;;;19.80;12.68;;;;;;;17.65;70.26;102447.19;5028511;28;20030;-75
2023/05/31 07:44:02;;;;;;;20.10;13.48;;;;;;;17.55;69.55;102442.56;5029224;28;20030;-75
2023/05/31 07:46:28;;;;;;;19.20;13.93;;;;;;;17.73;69.45;102444.81;5027917;28;20024;-80
2023/05/31 07:48:54;;;;;;;18.60;12.93;;;;;;;18.07;69.24;102433.19;5010257;28;20399;-75
2023/05/31 07:51:20;;;;;;;21.42;13.07;;;;;;;18.20;67.20;102440.16;5009138;28;20022;-75
2023/05/31 07:53:46;;;;;;;18.88;12.55;;;;;;;18.40;66.71;102437.56;5028581;28;20534;-75
2023/05/31 07:56:13;;;;;;;15.55;12.10;;;;;;;18.63;65.44;102440.19;5027344;28;20021;-76
2023/05/31 07:58:38;;;;;;;23.20;12.35;;;;;;;18.81;65.02;102432.47;5030152;28;20033;-75
2023/05/31 08:01:04;;;;;;;15.38;11.88;;;;;;;18.91;63.75;102425.41;5028298;28;20056;-75
2023/05/31 08:03:32;;;;;;;17.83;12.45;;;;;;;18.81;63.57;102432.47;5028230;28;20103;-75
2023/05/31 08:05:57;;;;;;;18.25;12.07;;;;;;;19.04;63.89;102423.41;5011399;28;20037;-75
2023/05/31 08:08:23;;;;;;;15.63;11.02;;;;;;;19.30;63.90;102424.72;5028982;28;20457;-75
2023/05/31 08:10:48;;;;;;;14.57;10.27;;;;;;;19.47;60.04;102422.41;5025932;28;20030;-75
2023/05/31 08:13:14;;;;;;;17.95;11.95;;;;;;;19.87;61.26;102425.13;5011237;28;20052;-76
2023/05/31 08:15:40;;;;;;;18.52;11.40;;;;;;;19.99;60.72;102422.22;5027316;28;20053;-76
2023/05/31 08:18:05;;;;;;;14.52;10.73;;;;;;;20.13;59.08;102422.81;5026269;28;20017;-81
2023/05/31 08:20:31;;;;;;;17.38;11.15;;;;;;;20.29;57.34;102428.47;5004588;28;20144;-80
2023/05/31 08:22:56;;;;;;;17.52;11.18;;;;;;;20.51;57.31;102422.06;5026980;28;20080;-82
2023/05/31 08:25:22;;;;;;;18.67;10.80;;;;;;;20.50;57.58;102421.22;5013342;28;20451;-81
2023/05/31 08:27:51;;;;;;;14.85;10.50;;;;;;;20.68;56.87;102429.38;5029152;28;20057;-81
2023/05/31 08:30:16;;;;;;;14.77;10.90;;;;;;;21.05;56.33;102416.13;5010254;28;20140;-81
2023/05/31 08:32:41;;;;;;;20.05;10.80;;;;;;;21.17;56.12;102409.59;5028214;28;20113;-81
2023/05/31 08:35:08;;;;;;;14.73;9.93;;;;;;;21.31;55.82;102418.22;5026859;28;20021;-81
2023/05/31 08:37:35;;;;;;;15.73;11.15;;;;;;;21.26;54.04;102414.16;5009308;28;20037;-81
2023/05/31 08:40:01;;;;;;;18.65;9.95;;;;;;;21.44;52.54;102405.34;5027435;28;20057;-81
2023/05/31 08:42:39;;;;;;;14.13;9.57;;;;;;;21.54;52.78;102417.72;5029740;28;20060;-78
2023/05/31 08:45:05;;;;;;;15.52;9.75;;;;;;;21.45;53.65;102412.41;5029128;28;20053;-76
2023/05/31 08:48:02;;;;;;;18.40;10.38;;;;;;;21.68;54.77;102412.88;5028913;28;20025;-76
2023/05/31 08:50:28;;;;;;;16.42;10.32;;;;;;;21.67;52.94;102409.38;5005008;28;20060;-76
2023/05/31 08:52:55;;;;;;;15.40;9.55;;;;;;;21.59;51.99;102406.53;5028208;28;20029;-76
2023/05/31 08:55:30;;;;;;;19.17;9.30;;;;;;;21.89;52.09;102406.28;5008168;28;20040;-76
2023/05/31 08:57:57;;;;;;;13.35;9.23;;;;;;;22.15;51.50;102397.56;4995605;28;20013;-76
2023/05/31 09:00:23;;;;;;;15.43;9.90;;;;;;;22.50;51.36;102389.53;5027463;28;20032;-76
2023/05/31 09:02:52;;;;;;;14.50;9.55;;;;;;;22.61;51.32;102395.66;5011193;28;20108;-76
2023/05/31 09:05:20;;;;;;;15.98;9.93;;;;;;;22.62;49.87;102387.44;5028163;28;20025;-76
2023/05/31 09:07:47;;;;;;;18.33;9.13;;;;;;;22.63;49.83;102388.28;5010544;28;20036;-76
2023/05/31 09:10:14;;;;;;;14.18;8.50;;;;;;;22.86;50.18;102394.91;5027176;28;20068;-77
2023/05/31 09:12:40;;;;;;;11.50;8.93;;;;;;;22.97;48.86;102381.22;5028969;28;20112;-77
2023/05/31 09:15:06;;;;;;;14.02;8.85;;;;;;;23.40;49.98;102395.59;5027536;28;20108;-76
2023/05/31 09:17:32;;;;;;;15.52;9.02;;;;;;;23.52;48.36;102391.59;5026703;28;20029;-76
2023/05/31 09:20:03;;;;;;;12.80;8.93;;;;;;;23.42;46.91;102393.56;5028715;28;20025;-77
2023/05/31 09:22:28;;;;;;;13.00;8.25;;;;;;;23.67;46.93;102384.66;5027336;28;20036;-76
2023/05/31 09:24:56;;;;;;;13.40;8.73;;;;;;;23.65;46.92;102386.69;5024676;28;20381;-76
2023/05/31 09:27:21;;;;;;;14.82;9.10;;;;;;;23.26;45.80;102380.06;5025377;28;20516;-77
2023/05/31 09:29:52;;;;;;;15.65;8.60;;;;;;;23.62;46.97;102376.25;5028347;28;20029;-77
2023/05/31 09:32:17;;;;;;;14.15;8.40;;;;;;;23.81;47.95;102375.13;5029471;28;20021;-76
2023/05/31 09:34:42;;;;;;;14.23;8.27;;;;;;;24.14;47.69;102370.69;5031317;28;20036;-77
2023/05/31 09:37:08;;;;;;;14.35;8.15;;;;;;;23.92;45.72;102371.28;5030261;28;20030;-77
2023/05/31 09:39:34;;;;;;;13.95;8.15;;;;;;;23.59;46.57;102365.78;5030967;28;20028;-77
2023/05/31 09:42:11;;;;;;;21.02;8.40;;;;;;;23.51;47.94;102365.75;5012136;28;20425;-76
2023/05/31 09:44:37;;;;;;;10.77;6.97;;;;;;;23.67;46.67;102357.78;5023314;28;20032;-76
2023/05/31 09:47:08;;;;;;;12.32;6.55;;;;;;;23.81;45.76;102359.00;5029703;28;20029;-77
2023/05/31 09:49:34;;;;;;;13.50;6.00;;;;;;;23.90;44.59;102358.00;5031873;28;20029;-77
2023/05/31 09:52:03;;;;;;;11.57;6.85;;;;;;;24.06;45.59;102352.69;5009217;28;20586;-77
2023/05/31 09:54:28;;;;;;;12.65;6.72;;;;;;;24.18;44.23;102357.75;5014061;28;20048;-77
2023/05/31 09:56:53;;;;;;;14.43;6.85;;;;;;;23.95;44.58;102352.16;5024402;28;20018;-77
2023/05/31 09:59:19;;;;;;;11.57;6.00;;;;;;;23.82;42.66;102349.94;5030746;28;20099;-76
2023/05/31 10:01:45;;;;;;;15.43;6.40;;;;;;;23.78;43.54;102353.13;5031261;28;20033;-76
2023/05/31 10:04:11;;;;;;;14.68;6.82;;;;;;;23.65;43.84;102354.44;5012664;28;20363;-77
2023/05/31 10:06:37;;;;;;;11.73;6.50;;;;;;;23.87;44.09;102341.38;5013832;28;20091;-76
2023/05/31 10:09:07;;;;;;;11.60;6.57;;;;;;;23.77;43.19;102349.59;5029238;28;20033;-76
2023/05/31 10:11:37;;;;;;;9.80;5.60;;;;;;;23.98;44.24;102344.59;5029008;28;20088;-77
2023/05/31 10:14:20;;;;;;;13.57;6.50;;;;;;;23.95;43.20;102342.22;5015807;28;20038;-76
2023/05/31 10:16:53;;;;;;;12.32;5.47;;;;;;;24.20;43.48;102342.28;5023649;28;20033;-77
2023/05/31 10:19:24;;;;;;;10.88;5.30;;;;;;;24.34;42.40;102345.19;5031124;28;20544;-77
2023/05/31 10:21:49;;;;;;;8.85;4.72;;;;;;;24.48;41.67;102327.53;5029917;28;20040;-77
2023/05/31 10:24:25;;;;;;;14.63;5.47;;;;;;;24.40;41.91;102338.28;5027589;28;20060;-76
2023/05/31 10:27:16;;;;;;;13.48;5.85;;;;;;;24.70;43.67;102323.31;5031021;28;20080;-76
2023/05/31 10:29:53;;;;;;;11.73;5.18;;;;;;;24.65;40.55;102321.13;5031563;28;20072;-76
2023/05/31 10:32:23;;;;;;;16.15;6.15;;;;;;;24.45;40.11;102322.50;5013689;28;20033;-76
2023/05/31 10:34:50;;;;;;;11.15;5.00;;;;;;;24.55;41.02;102303.47;5029113;28;20529;-77
2023/05/31 10:37:15;;;;;;;13.38;5.28;;;;;;;24.75;40.80;102299.41;5025316;28;20462;-76
2023/05/31 10:40:09;;;;;;;7.35;4.57;;;;;;;24.98;42.05;102294.19;5009715;28;20044;-77
2023/05/31 10:42:50;;;;;;;12.07;4.60;;;;;;;24.97;40.18;102293.31;5022308;28;20026;-76
2023/05/31 10:45:22;;;;;;;10.13;4.22;;;;;;;24.93;38.65;102296.50;5027129;28;20017;-76
2023/05/31 10:48:01;;;;;;;13.20;4.45;;;;;;;24.93;39.74;102291.97;5028205;28;20052;-76
2023/05/31 10:50:26;;;;;;;10.93;4.32;;;;;;;25.07;39.31;102286.91;5010278;28;20540;-75
2023/05/31 10:52:52;;;;;;;8.93;4.35;;;;;;;24.97;37.62;102287.91;5009564;28;20034;-76
2023/05/31 10:55:21;;;;;;;11.57;4.20;;;;;;;25.20;39.99;102281.78;5005225;28;20118;-76
2023/05/31 10:57:51;;;;;;;9.80;3.70;;;;;;;25.21;38.12;102288.84;5031390;28;20025;-76
2023/05/31 11:00:19;;;;;;;7.68;3.88;;;;;;;25.20;37.83;102282.63;5030164;28;20037;-76
2023/05/31 11:02:49;;;;;;;11.02;4.20;;;;;;;25.03;38.38;102277.50;5031820;28;20036;-77
2023/05/31 11:05:24;;;;;;;13.02;4.85;;;;;;;24.81;37.96;102287.09;5030713;28;20091;-76
2023/05/31 11:07:50;;;;;;;15.27;3.97;;;;;;;24.59;37.29;102285.97;5012211;28;20065;-76
2023/05/31 11:10:32;;;;;;;8.10;4.05;;;;;;;24.67;38.31;102291.34;5030855;28;20389;-76
2023/05/31 11:13:03;;;;;;;8.07;4.47;;;;;;;24.64;38.23;102281.75;5030456;28;20056;-76
2023/05/31 11:15:47;;;;;;;10.35;3.60;;;;;;;24.85;39.10;102278.53;5030436;28;20429;-76
2023/05/31 11:18:22;;;;;;;10.63;4.03;;;;;;;24.75;38.45;102277.84;5011720;28;20541;-76